createdAt,value
2018-07-15T00:00:07.367Z,4.05
2018-07-15T00:01:13.389Z,3.70
2018-07-15T00:02:19.087Z,3.55
2018-07-15T00:03:25.394Z,3.08
2018-07-15T00:04:31.727Z,3.35
2018-07-15T00:05:38.655Z,2.97
2018-07-15T00:06:44.949Z,2.97
2018-07-15T00:07:51.049Z,3.45
2018-07-15T00:08:57.327Z,3.12
2018-07-15T00:10:03.270Z,3.78
2018-07-15T00:11:09.667Z,3.30
2018-07-15T00:12:15.728Z,3.30
2018-07-15T00:13:22.055Z,3.30
2018-07-15T00:14:28.079Z,3.58
2018-07-15T00:15:34.384Z,3.10
2018-07-15T00:16:40.707Z,2.65
2018-07-15T00:17:47.025Z,2.87
2018-07-15T00:18:53.333Z,2.97
2018-07-15T00:20:00.546Z,3.15
2018-07-15T00:21:06.158Z,3.03
2018-07-15T00:22:12.489Z,3.42
2018-07-15T00:23:18.537Z,3.00
2018-07-15T00:24:24.851Z,2.85
2018-07-15T00:25:31.128Z,3.35
2018-07-15T00:26:37.401Z,3.17
2018-07-15T00:27:43.728Z,2.97
2018-07-15T00:28:50.040Z,2.92
2018-07-15T00:29:56.356Z,2.90
2018-07-15T00:31:02.648Z,2.80
2018-07-15T00:32:08.972Z,3.53
2018-07-15T00:33:16.231Z,2.65
2018-07-15T00:34:22.519Z,2.92
2018-07-15T00:35:28.932Z,2.72
2018-07-15T00:36:35.234Z,2.62
2018-07-15T00:37:42.447Z,2.62
2018-07-15T00:38:48.351Z,2.67
2018-07-15T00:39:55.629Z,2.70
2018-07-15T00:41:01.664Z,2.33
2018-07-15T00:42:07.640Z,2.40
2018-07-15T00:43:13.987Z,3.30
2018-07-15T00:44:20.296Z,2.90
2018-07-15T00:45:26.381Z,2.60
2018-07-15T00:46:32.334Z,2.70
2018-07-15T00:47:38.666Z,2.60
2018-07-15T00:48:44.993Z,2.90
2018-07-15T00:49:51.258Z,2.87
2018-07-15T00:50:57.607Z,2.80
2018-07-15T00:52:03.876Z,2.50
2018-07-15T00:53:10.165Z,3.10
2018-07-15T00:54:16.094Z,2.80
2018-07-15T00:55:22.050Z,2.40
2018-07-15T00:56:28.220Z,2.55
2018-07-15T00:57:34.520Z,2.40
2018-07-15T00:58:40.813Z,2.72
2018-07-15T00:59:47.127Z,2.20
2018-07-15T01:00:52.817Z,2.72
2018-07-15T01:01:58.044Z,2.65
2018-07-15T01:03:04.371Z,2.60
2018-07-15T01:04:10.019Z,2.50
2018-07-15T01:05:16.313Z,2.08
2018-07-15T01:06:22.665Z,2.45
2018-07-15T01:07:28.668Z,2.70
2018-07-15T01:08:34.930Z,2.80
2018-07-15T01:09:41.235Z,2.35
2018-07-15T01:10:46.918Z,2.58
2018-07-15T01:11:53.165Z,2.50
2018-07-15T01:12:59.446Z,2.50
2018-07-15T01:14:05.053Z,2.35
2018-07-15T01:15:11.019Z,2.70
2018-07-15T01:16:17.358Z,2.45
2018-07-15T01:17:23.077Z,3.00
2018-07-15T01:18:28.734Z,2.15
2018-07-15T01:19:34.979Z,2.50
2018-07-15T01:20:40.992Z,2.45
2018-07-15T01:21:47.304Z,2.85
2018-07-15T01:22:53.613Z,3.10
2018-07-15T01:23:59.915Z,2.30
2018-07-15T01:25:05.247Z,2.42
2018-07-15T01:26:11.606Z,2.67
2018-07-15T01:27:18.886Z,2.67
2018-07-15T01:28:25.214Z,2.55
2018-07-15T01:29:31.530Z,2.80
2018-07-15T01:30:37.592Z,2.30
2018-07-15T01:31:43.884Z,2.42
2018-07-15T01:32:50.217Z,2.62
2018-07-15T01:33:56.532Z,2.40
2018-07-15T01:35:02.808Z,2.40
2018-07-15T01:36:09.140Z,2.50
2018-07-15T01:37:15.432Z,2.83
2018-07-15T01:38:21.477Z,2.80
2018-07-15T01:39:28.685Z,2.47
2018-07-15T01:40:35.895Z,2.50
2018-07-15T01:41:41.963Z,3.15
2018-07-15T01:42:48.251Z,2.50
2018-07-15T01:43:54.533Z,2.60
2018-07-15T01:45:00.840Z,2.58
2018-07-15T01:46:07.178Z,2.00
2018-07-15T01:47:13.470Z,2.20
2018-07-15T01:48:19.736Z,2.58
2018-07-15T01:49:26.022Z,2.40
2018-07-15T01:50:32.346Z,2.67
2018-07-15T01:51:38.606Z,2.10
2018-07-15T01:52:44.895Z,2.25
2018-07-15T01:53:51.295Z,2.50
2018-07-15T01:54:57.593Z,2.05
2018-07-15T01:56:03.575Z,2.17
2018-07-15T01:57:09.866Z,2.65
2018-07-15T01:58:16.602Z,2.55
2018-07-15T01:59:22.882Z,2.70
2018-07-15T02:00:29.192Z,2.00
2018-07-15T02:01:35.483Z,2.20
2018-07-15T02:02:41.499Z,2.17
2018-07-15T02:03:47.787Z,2.10
2018-07-15T02:04:53.732Z,2.30
2018-07-15T02:06:00.012Z,2.65
2018-07-15T02:07:06.327Z,2.65
2018-07-15T02:08:13.564Z,1.95
2018-07-15T02:09:19.896Z,2.70
2018-07-15T02:10:26.206Z,2.35
2018-07-15T02:11:32.518Z,2.17
2018-07-15T02:12:38.786Z,3.08
2018-07-15T02:13:45.088Z,2.45
2018-07-15T02:14:51.133Z,2.87
2018-07-15T02:15:57.562Z,2.85
2018-07-15T02:17:03.890Z,2.65
2018-07-15T02:18:10.225Z,2.60
2018-07-15T02:19:16.532Z,2.87
2018-07-15T02:20:22.819Z,2.80
2018-07-15T02:21:29.097Z,2.60
2018-07-15T02:22:35.402Z,3.35
2018-07-15T02:23:41.707Z,2.40
2018-07-15T02:24:47.711Z,3.20
2018-07-15T02:25:54.011Z,2.85
2018-07-15T02:27:00.406Z,2.60
2018-07-15T02:28:07.635Z,2.00
2018-07-15T02:29:13.944Z,2.67
2018-07-15T02:30:20.281Z,2.70
2018-07-15T02:31:26.307Z,2.87
2018-07-15T02:32:32.382Z,2.78
2018-07-15T02:33:38.705Z,2.25
2018-07-15T02:34:44.707Z,2.65
2018-07-15T02:35:51.227Z,2.28
2018-07-15T02:36:57.573Z,2.95
2018-07-15T02:38:03.894Z,2.40
2018-07-15T02:39:11.150Z,2.30
2018-07-15T02:40:17.474Z,2.78
2018-07-15T02:41:23.506Z,2.83
2018-07-15T02:42:29.501Z,2.80
2018-07-15T02:43:36.739Z,2.67
2018-07-15T02:44:43.078Z,2.50
2018-07-15T02:45:49.007Z,2.25
2018-07-15T02:46:55.292Z,2.05
2018-07-15T02:48:01.606Z,2.75
2018-07-15T02:49:07.893Z,2.60
2018-07-15T02:50:14.205Z,2.37
2018-07-15T02:51:20.484Z,2.22
2018-07-15T02:52:26.775Z,2.62
2018-07-15T02:53:32.826Z,2.45
2018-07-15T02:54:39.134Z,2.40
2018-07-15T02:55:45.092Z,2.67
2018-07-15T02:56:51.384Z,2.53
2018-07-15T02:57:57.675Z,2.20
2018-07-15T02:59:03.967Z,2.58
2018-07-15T03:00:09.660Z,2.65
2018-07-15T03:01:15.973Z,2.78
2018-07-15T03:02:21.928Z,2.60
2018-07-15T03:03:27.934Z,2.20
2018-07-15T03:04:34.172Z,2.25
2018-07-15T03:05:40.528Z,2.67
2018-07-15T03:06:46.871Z,2.75
2018-07-15T03:07:53.157Z,2.40
2018-07-15T03:08:59.445Z,2.10
2018-07-15T03:10:06.643Z,2.35
2018-07-15T03:11:12.974Z,2.50
2018-07-15T03:12:25.153Z,2.62
2018-07-15T03:13:31.485Z,2.60
2018-07-15T03:14:37.769Z,2.80
2018-07-15T03:15:44.090Z,2.65
2018-07-15T03:16:50.391Z,2.28
2018-07-15T03:17:56.726Z,3.17
2018-07-15T03:19:03.039Z,3.30
2018-07-15T03:20:09.121Z,2.30
2018-07-15T03:21:15.455Z,2.37
2018-07-15T03:22:21.797Z,2.35
2018-07-15T03:23:28.556Z,2.40
2018-07-15T03:24:34.831Z,2.97
2018-07-15T03:25:41.131Z,2.08
2018-07-15T03:26:47.415Z,2.85
2018-07-15T03:27:53.702Z,2.83
2018-07-15T03:28:59.991Z,2.50
2018-07-15T03:30:07.209Z,2.30
2018-07-15T03:31:13.218Z,2.30
2018-07-15T03:32:19.510Z,2.45
2018-07-15T03:33:25.798Z,2.80
2018-07-15T03:34:33.003Z,2.40
2018-07-15T03:35:39.308Z,2.58
2018-07-15T03:36:45.601Z,2.65
2018-07-15T03:37:51.904Z,2.62
2018-07-15T03:38:58.819Z,3.00
2018-07-15T03:40:04.822Z,2.80
2018-07-15T03:41:17.736Z,2.90
2018-07-15T03:42:24.027Z,3.03
2018-07-15T03:43:29.977Z,2.75
2018-07-15T03:44:36.334Z,3.08
2018-07-15T03:45:42.614Z,2.90
2018-07-15T03:46:49.793Z,3.20
2018-07-15T03:47:56.114Z,3.33
2018-07-15T03:49:02.457Z,3.05
2018-07-15T03:50:09.155Z,3.08
2018-07-15T03:51:15.204Z,2.95
2018-07-15T03:52:21.493Z,2.80
2018-07-15T03:53:27.742Z,2.92
2018-07-15T03:54:34.018Z,3.17
2018-07-15T03:55:40.335Z,2.85
2018-07-15T03:56:47.604Z,2.87
2018-07-15T03:57:53.884Z,3.58
2018-07-15T03:59:00.212Z,2.60
2018-07-15T04:00:06.228Z,3.10
2018-07-15T04:01:12.271Z,3.62
2018-07-15T04:02:18.576Z,3.15
2018-07-15T04:03:24.589Z,3.10
2018-07-15T04:04:30.894Z,2.92
2018-07-15T04:05:37.201Z,3.22
2018-07-15T04:06:43.536Z,3.00
2018-07-15T04:07:49.807Z,2.78
2018-07-15T04:08:56.380Z,2.40
2018-07-15T04:10:02.875Z,3.17
2018-07-15T04:11:08.816Z,3.75
2018-07-15T04:12:15.087Z,3.10
2018-07-15T04:13:21.414Z,2.90
2018-07-15T04:14:27.707Z,2.97
2018-07-15T04:15:33.701Z,2.90
2018-07-15T04:16:40.758Z,3.12
2018-07-15T04:17:46.918Z,2.92
2018-07-15T04:18:53.232Z,2.85
2018-07-15T04:19:59.539Z,2.90
2018-07-15T04:21:05.512Z,3.00
2018-07-15T04:22:11.866Z,3.42
2018-07-15T04:23:18.149Z,2.83
2018-07-15T04:24:24.463Z,3.10
2018-07-15T04:25:30.729Z,3.22
2018-07-15T04:26:38.056Z,3.80
2018-07-15T04:27:45.318Z,3.00
2018-07-15T04:28:51.496Z,3.20
2018-07-15T04:29:57.833Z,3.47
2018-07-15T04:31:04.141Z,3.30
2018-07-15T04:32:09.846Z,3.10
2018-07-15T04:33:17.031Z,2.83
2018-07-15T04:34:23.343Z,3.12
2018-07-15T04:35:29.630Z,3.25
2018-07-15T04:36:35.940Z,3.55
2018-07-15T04:37:42.302Z,3.10
2018-07-15T04:38:48.605Z,3.25
2018-07-15T04:39:55.059Z,2.90
2018-07-15T04:41:01.434Z,3.00
2018-07-15T04:42:07.398Z,3.53
2018-07-15T04:43:13.767Z,3.10
2018-07-15T04:44:20.098Z,3.03
2018-07-15T04:45:26.440Z,3.10
2018-07-15T04:46:32.492Z,3.05
2018-07-15T04:47:39.826Z,2.97
2018-07-15T04:48:46.953Z,2.95
2018-07-15T04:49:53.614Z,3.00
2018-07-15T04:51:00.591Z,3.25
2018-07-15T04:52:07.379Z,3.00
2018-07-15T04:53:13.820Z,3.05
2018-07-15T04:54:19.787Z,3.03
2018-07-15T04:55:26.062Z,2.42
2018-07-15T04:56:32.470Z,4.20
2018-07-15T04:57:38.804Z,2.90
2018-07-15T04:58:45.133Z,3.37
2018-07-15T04:59:51.446Z,3.53
2018-07-15T05:00:57.729Z,2.87
2018-07-15T05:02:04.100Z,2.70
2018-07-15T05:03:10.633Z,3.37
2018-07-15T05:04:16.958Z,2.72
2018-07-15T05:05:23.279Z,3.45
2018-07-15T05:06:29.589Z,3.05
2018-07-15T05:07:35.895Z,3.45
2018-07-15T05:08:42.267Z,3.17
2018-07-15T05:09:48.586Z,3.05
2018-07-15T05:10:54.889Z,3.58
2018-07-15T05:12:01.163Z,3.33
2018-07-15T05:13:07.531Z,3.62
2018-07-15T05:14:13.864Z,2.90
2018-07-15T05:15:20.171Z,3.37
2018-07-15T05:16:26.451Z,3.58
2018-07-15T05:17:32.808Z,3.10
2018-07-15T05:18:39.099Z,3.10
2018-07-15T05:19:45.372Z,3.08
2018-07-15T05:20:51.671Z,3.22
2018-07-15T05:21:57.983Z,3.00
2018-07-15T05:23:04.268Z,3.25
2018-07-15T05:24:10.551Z,2.90
2018-07-15T05:25:16.862Z,2.75
2018-07-15T05:26:23.155Z,2.70
2018-07-15T05:27:29.471Z,3.50
2018-07-15T05:28:36.405Z,3.37
2018-07-15T05:29:42.751Z,3.45
2018-07-15T05:30:48.906Z,2.92
2018-07-15T05:31:55.207Z,2.95
2018-07-15T05:33:01.497Z,3.35
2018-07-15T05:34:07.855Z,3.10
2018-07-15T05:35:15.083Z,3.42
2018-07-15T05:36:21.345Z,3.15
2018-07-15T05:37:27.289Z,3.10
2018-07-15T05:38:33.883Z,3.20
2018-07-15T05:39:39.863Z,2.90
2018-07-15T05:40:45.924Z,3.55
2018-07-15T05:41:52.258Z,3.12
2018-07-15T05:42:58.612Z,2.75
2018-07-15T05:44:04.350Z,2.92
2018-07-15T05:45:10.361Z,2.95
2018-07-15T05:46:16.678Z,2.55
2018-07-15T05:47:22.979Z,2.95
2018-07-15T05:48:29.338Z,2.95
2018-07-15T05:49:35.742Z,2.80
2018-07-15T05:50:42.054Z,2.83
2018-07-15T05:51:49.316Z,2.50
2018-07-15T05:52:56.724Z,2.70
2018-07-15T05:54:03.094Z,2.60
2018-07-15T05:55:09.490Z,2.17
2018-07-15T05:56:15.202Z,2.53
2018-07-15T05:57:21.468Z,3.12
2018-07-15T05:58:27.763Z,3.22
2018-07-15T05:59:33.745Z,2.90
2018-07-15T06:00:39.670Z,2.15
2018-07-15T06:01:46.007Z,3.40
2018-07-15T06:02:52.311Z,2.80
2018-07-15T06:03:58.605Z,2.75
2018-07-15T06:05:04.926Z,2.50
2018-07-15T06:06:11.199Z,2.50
2018-07-15T06:07:17.487Z,2.55
2018-07-15T06:08:24.443Z,2.60
2018-07-15T06:09:30.819Z,2.85
2018-07-15T06:10:37.347Z,2.60
2018-07-15T06:11:44.226Z,2.80
2018-07-15T06:12:51.455Z,2.37
2018-07-15T06:13:57.732Z,2.97
2018-07-15T06:15:03.756Z,2.60
2018-07-15T06:16:10.082Z,3.03
2018-07-15T06:17:16.382Z,3.17
2018-07-15T06:18:22.706Z,3.00
2018-07-15T06:19:29.230Z,2.85
2018-07-15T06:20:35.557Z,2.42
2018-07-15T06:21:41.867Z,3.15
2018-07-15T06:22:48.190Z,2.90
2018-07-15T06:23:54.664Z,2.47
2018-07-15T06:25:00.569Z,2.60
2018-07-15T06:26:06.582Z,2.80
2018-07-15T06:27:12.903Z,2.62
2018-07-15T06:28:19.220Z,2.60
2018-07-15T06:29:25.524Z,2.60
2018-07-15T06:30:31.827Z,3.65
2018-07-15T06:31:38.096Z,3.33
2018-07-15T06:32:45.026Z,3.05
2018-07-15T06:33:51.309Z,2.90
2018-07-15T06:34:56.954Z,3.17
2018-07-15T06:36:03.244Z,2.53
2018-07-15T06:37:09.137Z,2.75
2018-07-15T06:38:15.503Z,2.80
2018-07-15T06:39:21.764Z,3.03
2018-07-15T06:40:28.070Z,2.72
2018-07-15T06:41:34.673Z,2.80
2018-07-15T06:42:41.838Z,2.95
2018-07-15T06:43:48.858Z,2.90
2018-07-15T06:44:55.144Z,2.60
2018-07-15T06:46:01.428Z,3.03
2018-07-15T06:47:07.747Z,2.70
2018-07-15T06:48:14.138Z,3.10
2018-07-15T06:49:20.301Z,2.60
2018-07-15T06:50:26.715Z,2.65
2018-07-15T06:51:33.077Z,3.05
2018-07-15T06:52:39.363Z,2.92
2018-07-15T06:53:45.632Z,3.00
2018-07-15T06:54:51.434Z,3.15
2018-07-15T06:55:58.324Z,2.80
2018-07-15T06:57:05.632Z,2.83
2018-07-15T06:58:12.658Z,2.65
2018-07-15T06:59:19.984Z,2.80
2018-07-15T07:00:27.743Z,3.10
2018-07-15T07:01:35.054Z,3.40
2018-07-15T07:02:41.845Z,2.75
2018-07-15T07:03:48.295Z,2.40
2018-07-15T07:04:56.577Z,2.30
2018-07-15T07:06:04.926Z,3.10
2018-07-15T07:07:11.989Z,2.55
2018-07-15T07:08:18.655Z,1.98
2018-07-15T07:09:26.237Z,2.42
2018-07-15T07:10:38.619Z,2.65
2018-07-15T07:11:45.523Z,2.80
2018-07-15T07:12:52.349Z,2.50
2018-07-15T07:14:02.386Z,2.58
2018-07-15T07:15:11.801Z,1.95
2018-07-15T07:16:23.831Z,2.00
2018-07-15T07:17:37.383Z,2.45
2018-07-15T07:18:47.016Z,2.15
2018-07-15T07:19:54.639Z,2.40
2018-07-15T07:21:02.351Z,2.33
2018-07-15T07:22:09.876Z,2.00
2018-07-15T07:23:17.697Z,2.28
2018-07-15T07:24:25.677Z,2.10
2018-07-15T07:25:33.531Z,2.72
2018-07-15T07:26:42.692Z,1.80
2018-07-15T07:27:51.370Z,1.70
2018-07-15T07:28:59.045Z,1.70
2018-07-15T07:30:06.754Z,1.90
2018-07-15T07:31:15.743Z,1.62
2018-07-15T07:32:23.479Z,2.40
2018-07-15T07:33:30.157Z,2.03
2018-07-15T07:34:36.719Z,1.83
2018-07-15T07:35:43.788Z,1.70
2018-07-15T07:36:49.805Z,1.60
2018-07-15T07:37:56.111Z,1.95
2018-07-15T07:39:02.428Z,1.95
2018-07-15T07:40:08.777Z,2.00
2018-07-15T07:41:15.150Z,2.15
2018-07-15T07:42:21.620Z,2.33
2018-07-15T07:43:27.898Z,1.90
2018-07-15T07:44:34.158Z,2.00
2018-07-15T07:45:40.545Z,2.12
2018-07-15T07:46:46.884Z,2.10
2018-07-15T07:47:53.176Z,2.40
2018-07-15T07:48:59.474Z,1.92
2018-07-15T07:50:05.540Z,1.87
2018-07-15T07:51:11.868Z,2.05
2018-07-15T07:52:17.918Z,1.80
2018-07-15T07:53:24.324Z,2.28
2018-07-15T07:54:30.532Z,2.22
2018-07-15T07:55:36.584Z,2.15
2018-07-15T07:56:42.879Z,1.80
2018-07-15T07:57:49.190Z,1.40
2018-07-15T07:58:55.180Z,2.40
2018-07-15T08:00:01.538Z,1.83
2018-07-15T08:01:07.803Z,2.47
2018-07-15T08:02:13.790Z,1.92
2018-07-15T08:03:20.065Z,2.35
2018-07-15T08:04:26.360Z,2.15
2018-07-15T08:05:32.364Z,2.05
2018-07-15T08:06:38.375Z,2.15
2018-07-15T08:07:44.416Z,2.35
2018-07-15T08:08:50.264Z,2.37
2018-07-15T08:09:56.545Z,1.90
2018-07-15T08:11:02.814Z,2.10
2018-07-15T08:12:09.098Z,1.90
2018-07-15T08:13:16.511Z,1.87
2018-07-15T08:14:23.142Z,2.03
2018-07-15T08:15:29.321Z,2.30
2018-07-15T08:16:35.315Z,1.60
2018-07-15T08:17:41.587Z,2.15
2018-07-15T08:18:51.359Z,2.00
2018-07-15T08:20:00.404Z,1.67
2018-07-15T08:21:05.958Z,2.03
2018-07-15T08:22:12.240Z,2.40
2018-07-15T08:23:18.526Z,1.90
2018-07-15T08:24:24.797Z,1.73
2018-07-15T08:25:31.097Z,2.00
2018-07-15T08:26:37.393Z,2.10
2018-07-15T08:27:43.709Z,3.10
2018-07-15T08:28:50.042Z,2.20
2018-07-15T08:29:55.652Z,2.60
2018-07-15T08:31:04.182Z,2.35
2018-07-15T08:32:10.487Z,2.50
2018-07-15T08:33:16.796Z,2.22
2018-07-15T08:34:22.814Z,2.00
2018-07-15T08:35:29.066Z,2.25
2018-07-15T08:36:35.021Z,1.77
2018-07-15T08:37:41.020Z,2.00
2018-07-15T08:38:46.979Z,1.60
2018-07-15T08:39:53.009Z,1.92
2018-07-15T08:40:59.262Z,2.25
2018-07-15T08:42:05.685Z,2.37
2018-07-15T08:43:11.682Z,1.90
2018-07-15T08:44:17.713Z,2.60
2018-07-15T08:45:23.321Z,1.90
2018-07-15T08:46:29.354Z,2.20
2018-07-15T08:47:35.648Z,1.90
2018-07-15T08:48:41.627Z,2.45
2018-07-15T08:49:47.636Z,1.95
2018-07-15T08:50:54.319Z,2.12
2018-07-15T08:52:01.223Z,2.37
2018-07-15T08:53:08.071Z,1.98
2018-07-15T08:54:14.391Z,2.42
2018-07-15T08:55:20.849Z,2.30
2018-07-15T08:56:27.573Z,2.00
2018-07-15T08:57:34.043Z,2.33
2018-07-15T08:58:40.372Z,2.03
2018-07-15T08:59:47.911Z,2.20
2018-07-15T09:00:54.145Z,2.08
2018-07-15T09:02:00.415Z,2.45
2018-07-15T09:03:06.329Z,2.30
2018-07-15T09:04:14.056Z,2.97
2018-07-15T09:05:21.416Z,2.20
2018-07-15T09:06:28.091Z,1.73
2018-07-15T09:07:34.544Z,2.05
2018-07-15T09:08:41.019Z,2.12
2018-07-15T09:09:47.489Z,2.00
2018-07-15T09:10:53.465Z,2.20
2018-07-15T09:11:59.415Z,2.10
2018-07-15T09:13:04.995Z,1.98
2018-07-15T09:14:11.293Z,2.65
2018-07-15T09:15:18.177Z,2.30
2018-07-15T09:16:24.928Z,1.90
2018-07-15T09:17:31.343Z,2.30
2018-07-15T09:18:37.856Z,2.55
2018-07-15T09:19:45.514Z,2.25
2018-07-15T09:20:51.925Z,1.90
2018-07-15T09:21:58.609Z,1.85
2018-07-15T09:23:04.600Z,2.05
2018-07-15T09:24:11.443Z,2.20
2018-07-15T09:25:17.734Z,2.10
2018-07-15T09:26:24.933Z,2.10
2018-07-15T09:27:31.215Z,2.45
2018-07-15T09:28:37.561Z,2.20
2018-07-15T09:29:43.826Z,1.62
2018-07-15T09:30:50.460Z,2.70
2018-07-15T09:31:57.119Z,2.37
2018-07-15T09:33:03.843Z,2.50
2018-07-15T09:34:10.665Z,4.05
2018-07-15T09:35:16.922Z,2.10
2018-07-15T09:36:23.461Z,2.70
2018-07-15T09:37:29.793Z,2.15
2018-07-15T09:38:36.102Z,2.25
2018-07-15T09:39:42.489Z,2.12
2018-07-15T09:40:48.494Z,2.15
2018-07-15T09:41:55.936Z,2.80
2018-07-15T09:43:02.495Z,2.20
2018-07-15T09:44:08.582Z,2.45
2018-07-15T09:45:14.708Z,2.08
2018-07-15T09:46:21.057Z,1.92
2018-07-15T09:47:27.137Z,1.95
2018-07-15T09:48:33.115Z,2.47
2018-07-15T09:49:39.416Z,2.55
2018-07-15T09:50:46.089Z,2.50
2018-07-15T09:51:53.227Z,2.10
2018-07-15T09:53:00.054Z,2.08
2018-07-15T09:54:07.009Z,2.72
2018-07-15T09:55:13.470Z,2.72
2018-07-15T09:56:20.237Z,2.70
2018-07-15T09:57:26.560Z,3.00
2018-07-15T09:58:33.256Z,2.20
2018-07-15T09:59:39.565Z,2.70
2018-07-15T10:00:45.612Z,3.40
2018-07-15T10:01:51.615Z,2.75
2018-07-15T10:02:58.057Z,2.62
2018-07-15T10:04:04.945Z,2.70
2018-07-15T10:05:13.213Z,2.60
2018-07-15T10:06:19.796Z,3.20
2018-07-15T10:07:26.063Z,2.85
2018-07-15T10:08:32.418Z,2.35
2018-07-15T10:09:39.095Z,2.70
2018-07-15T10:10:45.853Z,2.78
2018-07-15T10:11:51.983Z,2.85
2018-07-15T10:12:58.270Z,2.70
2018-07-15T10:14:05.005Z,3.28
2018-07-15T10:15:12.066Z,2.95
2018-07-15T10:16:18.107Z,3.12
2018-07-15T10:17:24.411Z,2.85
2018-07-15T10:18:31.014Z,2.60
2018-07-15T10:19:37.097Z,2.65
2018-07-15T10:20:43.916Z,2.60
2018-07-15T10:21:50.200Z,3.30
2018-07-15T10:22:56.773Z,3.28
2018-07-15T10:24:03.077Z,3.08
2018-07-15T10:25:09.932Z,3.05
2018-07-15T10:26:17.227Z,3.70
2018-07-15T10:27:24.621Z,2.85
2018-07-15T10:28:31.346Z,3.67
2018-07-15T10:29:38.448Z,2.80
2018-07-15T10:30:45.559Z,3.53
2018-07-15T10:31:52.911Z,2.92
2018-07-15T10:33:02.057Z,3.15
2018-07-15T10:34:09.257Z,3.20
2018-07-15T10:35:16.660Z,2.92
2018-07-15T10:36:23.924Z,3.50
2018-07-15T10:37:31.984Z,3.05
2018-07-15T10:38:38.461Z,3.70
2018-07-15T10:39:45.697Z,3.17
2018-07-15T10:40:52.960Z,3.92
2018-07-15T10:42:01.210Z,2.50
2018-07-15T10:43:08.089Z,2.40
2018-07-15T10:44:15.163Z,3.20
2018-07-15T10:45:22.131Z,2.90
2018-07-15T10:46:28.938Z,2.80
2018-07-15T10:47:36.027Z,3.20
2018-07-15T10:48:42.765Z,3.50
2018-07-15T10:49:49.584Z,3.50
2018-07-15T10:50:56.407Z,3.83
2018-07-15T10:52:03.323Z,3.00
2018-07-15T10:53:10.843Z,3.00
2018-07-15T10:54:18.226Z,2.70
2018-07-15T10:55:25.717Z,2.92
2018-07-15T10:56:32.923Z,2.75
2018-07-15T10:57:40.476Z,2.60
2018-07-15T10:58:47.712Z,2.90
2018-07-15T10:59:55.045Z,3.20
2018-07-15T11:01:02.474Z,3.97
2018-07-15T11:02:09.550Z,3.05
2018-07-15T11:03:16.751Z,3.20
2018-07-15T11:04:24.103Z,3.03
2018-07-15T11:05:30.949Z,3.35
2018-07-15T11:06:38.103Z,3.00
2018-07-15T11:07:46.221Z,3.47
2018-07-15T11:08:52.945Z,2.95
2018-07-15T11:10:00.125Z,2.90
2018-07-15T11:11:08.648Z,2.85
2018-07-15T11:12:16.109Z,2.90
2018-07-15T11:13:22.837Z,2.22
2018-07-15T11:14:29.662Z,2.55
2018-07-15T11:15:36.867Z,2.85
2018-07-15T11:16:44.118Z,2.55
2018-07-15T11:17:51.280Z,3.10
2018-07-15T11:18:58.501Z,3.20
2018-07-15T11:20:05.376Z,2.90
2018-07-15T11:21:13.542Z,3.50
2018-07-15T11:22:20.821Z,3.17
2018-07-15T11:23:27.910Z,3.40
2018-07-15T11:24:35.418Z,2.90
2018-07-15T11:25:42.784Z,2.55
2018-07-15T11:26:50.163Z,3.80
2018-07-15T11:27:57.740Z,3.67
2018-07-15T11:29:05.053Z,3.80
2018-07-15T11:30:12.397Z,3.30
2018-07-15T11:31:19.400Z,3.50
2018-07-15T11:32:26.802Z,3.37
2018-07-15T11:33:38.920Z,3.00
2018-07-15T11:34:46.273Z,2.70
2018-07-15T11:35:53.717Z,3.75
2018-07-15T11:37:00.571Z,3.62
2018-07-15T11:38:07.599Z,3.25
2018-07-15T11:39:14.732Z,3.33
2018-07-15T11:40:21.709Z,3.40
2018-07-15T11:41:28.694Z,3.33
2018-07-15T11:42:35.626Z,3.80
2018-07-15T11:43:42.692Z,3.70
2018-07-15T11:44:49.376Z,3.90
2018-07-15T11:45:56.008Z,2.87
2018-07-15T11:47:03.532Z,3.42
2018-07-15T11:48:10.912Z,3.87
2018-07-15T11:49:17.594Z,3.73
2018-07-15T11:50:24.518Z,3.58
2018-07-15T11:51:31.124Z,3.22
2018-07-15T11:52:37.405Z,3.50
2018-07-15T11:53:44.070Z,3.70
2018-07-15T11:54:50.733Z,4.13
2018-07-15T11:55:57.798Z,3.40
2018-07-15T11:57:04.982Z,3.90
2018-07-15T11:58:14.575Z,3.65
2018-07-15T11:59:23.964Z,3.85
2018-07-15T12:00:31.588Z,3.87
2018-07-15T12:01:38.555Z,3.80
2018-07-15T12:02:45.243Z,3.77
2018-07-15T12:03:52.161Z,3.08
2018-07-15T12:05:00.007Z,3.80
2018-07-15T12:06:07.264Z,3.77
2018-07-15T12:07:14.018Z,4.00
2018-07-15T12:08:20.811Z,4.43
2018-07-15T12:09:27.841Z,3.50
2018-07-15T12:10:34.216Z,3.10
2018-07-15T12:11:40.984Z,3.50
2018-07-15T12:12:48.094Z,3.60
2018-07-15T12:13:54.517Z,3.37
2018-07-15T12:15:02.035Z,3.22
2018-07-15T12:16:09.182Z,3.20
2018-07-15T12:17:16.385Z,3.33
2018-07-15T12:18:23.086Z,3.30
2018-07-15T12:19:30.175Z,3.60
2018-07-15T12:20:37.409Z,3.73
2018-07-15T12:21:44.828Z,3.47
2018-07-15T12:22:51.576Z,3.03
2018-07-15T12:23:58.662Z,2.77
2018-07-15T12:25:04.973Z,2.87
2018-07-15T12:26:11.301Z,3.13
2018-07-15T12:27:18.001Z,2.67
2018-07-15T12:28:24.945Z,2.87
2018-07-15T12:29:31.626Z,3.00
2018-07-15T12:30:38.756Z,2.75
2018-07-15T12:31:45.359Z,2.40
2018-07-15T12:32:51.852Z,2.53
2018-07-15T12:33:58.914Z,2.20
2018-07-15T12:35:05.968Z,1.80
2018-07-15T12:36:12.875Z,2.40
2018-07-15T12:37:19.593Z,2.47
2018-07-15T12:38:27.336Z,2.10
2018-07-15T12:39:34.117Z,2.33
2018-07-15T12:40:40.451Z,2.67
2018-07-15T12:41:47.284Z,2.07
2018-07-15T12:42:54.661Z,2.27
2018-07-15T12:44:01.300Z,1.70
2018-07-15T12:45:08.011Z,1.60
2018-07-15T12:46:14.850Z,1.93
2018-07-15T12:47:21.124Z,2.03
2018-07-15T12:48:27.971Z,2.30
2018-07-15T12:49:35.784Z,1.70
2018-07-15T12:50:43.004Z,1.90
2018-07-15T12:51:49.583Z,1.80
2018-07-15T12:52:56.295Z,1.43
2018-07-15T12:54:03.263Z,1.50
2018-07-15T12:55:10.185Z,1.67
2018-07-15T12:56:16.794Z,1.70
2018-07-15T12:57:23.743Z,1.90
2018-07-15T12:58:30.834Z,1.90
2018-07-15T12:59:37.295Z,1.47
2018-07-15T13:00:44.270Z,1.87
2018-07-15T13:01:50.970Z,1.70
2018-07-15T13:02:57.830Z,1.43
2018-07-15T13:04:05.136Z,1.60
2018-07-15T13:05:11.844Z,1.87
2018-07-15T13:06:18.799Z,1.50
2018-07-15T13:07:26.378Z,1.40
2018-07-15T13:08:33.182Z,2.03
2018-07-15T13:09:40.372Z,1.80
2018-07-15T13:10:46.651Z,1.90
2018-07-15T13:11:53.802Z,2.00
2018-07-15T13:13:01.541Z,1.67
2018-07-15T13:14:08.458Z,1.60
2018-07-15T13:15:14.920Z,2.17
2018-07-15T13:16:22.041Z,2.20
2018-07-15T13:17:29.062Z,1.83
2018-07-15T13:18:35.953Z,1.60
2018-07-15T13:19:42.863Z,1.67
2018-07-15T13:20:49.800Z,1.90
2018-07-15T13:21:56.853Z,2.20
2018-07-15T13:23:03.608Z,1.63
2018-07-15T13:24:10.535Z,1.97
2018-07-15T13:25:17.243Z,1.70
2018-07-15T13:26:23.739Z,1.67
2018-07-15T13:27:30.465Z,1.83
2018-07-15T13:28:37.784Z,1.43
2018-07-15T13:29:44.055Z,1.97
2018-07-15T13:30:50.780Z,2.03
2018-07-15T13:31:57.896Z,1.57
2018-07-15T13:33:04.177Z,1.60
2018-07-15T13:34:11.056Z,1.60
2018-07-15T13:35:17.849Z,1.50
2018-07-15T13:36:24.435Z,1.30
2018-07-15T13:37:31.367Z,1.30
2018-07-15T13:38:38.353Z,1.40
2018-07-15T13:39:45.262Z,1.47
2018-07-15T13:40:52.005Z,1.30
2018-07-15T13:41:59.188Z,1.67
2018-07-15T13:43:06.730Z,1.23
2018-07-15T13:44:13.040Z,1.97
2018-07-15T13:45:20.011Z,1.70
2018-07-15T13:46:26.724Z,1.73
2018-07-15T13:47:33.338Z,1.47
2018-07-15T13:48:40.061Z,1.60
2018-07-15T13:49:47.054Z,1.30
2018-07-15T13:50:53.883Z,1.60
2018-07-15T13:52:01.009Z,1.20
2018-07-15T13:53:08.361Z,1.30
2018-07-15T13:54:15.821Z,1.40
2018-07-15T13:55:22.970Z,1.57
2018-07-15T13:56:29.515Z,1.33
2018-07-15T13:57:36.363Z,1.37
2018-07-15T13:58:43.675Z,1.40
2018-07-15T13:59:50.304Z,1.30
2018-07-15T14:00:57.255Z,1.17
2018-07-15T14:02:04.113Z,1.33
2018-07-15T14:03:10.756Z,1.33
2018-07-15T14:04:17.557Z,1.30
2018-07-15T14:05:24.449Z,1.53
2018-07-15T14:06:30.884Z,1.40
2018-07-15T14:07:37.880Z,1.30
2018-07-15T14:08:44.740Z,1.20
2018-07-15T14:09:52.012Z,1.07
2018-07-15T14:10:58.693Z,1.30
2018-07-15T14:12:05.196Z,1.00
2018-07-15T14:13:11.839Z,1.33
2018-07-15T14:14:18.547Z,0.90
2018-07-15T14:15:25.291Z,1.40
2018-07-15T14:16:31.596Z,1.20
2018-07-15T14:17:38.301Z,1.20
2018-07-15T14:18:45.197Z,1.17
2018-07-15T14:19:51.630Z,1.23
2018-07-15T14:20:58.269Z,1.00
2018-07-15T14:22:05.923Z,1.27
2018-07-15T14:23:12.554Z,1.40
2018-07-15T14:24:19.425Z,1.50
2018-07-15T14:25:26.879Z,1.10
2018-07-15T14:26:33.708Z,1.13
2018-07-15T14:27:40.784Z,1.27
2018-07-15T14:28:47.870Z,1.43
2018-07-15T14:29:55.129Z,1.00
2018-07-15T14:31:01.332Z,1.13
2018-07-15T14:32:08.092Z,1.00
2018-07-15T14:33:14.372Z,0.90
2018-07-15T14:34:21.749Z,1.10
2018-07-15T14:35:28.655Z,1.00
2018-07-15T14:36:35.264Z,1.00
2018-07-15T14:37:42.054Z,1.03
2018-07-15T14:38:49.925Z,1.10
2018-07-15T14:39:56.693Z,1.07
2018-07-15T14:41:02.921Z,3.53
2018-07-15T14:42:09.278Z,1.00
2018-07-15T14:43:15.964Z,1.20
2018-07-15T14:44:22.269Z,1.43
2018-07-15T14:45:28.552Z,1.20
2018-07-15T14:46:34.828Z,1.20